Time;durP1;ratioP1;P1;durP2;ratioP2;P2;SDS_P1;SDS_P2;PMS_P1;PMS_P2;Temp;Humidity;BMP_temperature;BMP_pressure;BME280_temperature;BME280_humidity;BME280_pressure;Samples;Min_cycle;Max_cycle;Signal;HPM_P1;HPM_P2
2022/11/20 00:01:14;;;;;;;15.57;11.50;;;1.50;99.90;;;;;;5011960;28;20414;-74
2022/11/20 00:03:40;;;;;;;15.18;11.25;;;1.50;99.90;;;;;;5013064;28;20415;-74
2022/11/20 00:06:09;;;;;;;17.52;12.18;;;1.50;99.90;;;;;;5025016;28;20402;-74
2022/11/20 00:08:35;;;;;;;17.42;11.85;;;1.50;99.90;;;;;;4989472;28;20441;-75
2022/11/20 00:11:13;;;;;;;15.90;12.00;;;1.50;99.90;;;;;;4990584;28;20517;-75
2022/11/20 00:13:39;;;;;;;15.52;11.45;;;1.50;99.90;;;;;;5021644;28;20854;-75
2022/11/20 00:16:07;;;;;;;17.20;12.43;;;1.50;99.90;;;;;;5007706;28;20419;-75
2022/11/20 00:18:33;;;;;;;16.00;11.68;;;1.50;99.90;;;;;;5005329;28;20574;-74
2022/11/20 00:21:10;;;;;;;15.23;11.15;;;1.50;99.90;;;;;;5024797;28;20409;-75
2022/11/20 00:23:35;;;;;;;17.00;11.80;;;1.50;99.90;;;;;;5011596;28;20488;-73
2022/11/20 00:26:03;;;;;;;14.20;10.30;;;1.50;99.90;;;;;;5019101;28;20500;-73
2022/11/20 00:28:29;;;;;;;13.68;10.20;;;1.50;99.90;;;;;;4991900;28;20942;-73
2022/11/20 00:31:10;;;;;;;14.07;10.63;;;1.50;99.90;;;;;;4997548;28;20437;-72
2022/11/20 00:33:36;;;;;;;15.15;10.60;;;1.50;99.90;;;;;;5027782;28;20465;-74
2022/11/20 00:36:04;;;;;;;16.17;10.90;;;1.50;99.90;;;;;;5021744;28;20412;-74
2022/11/20 00:38:31;;;;;;;13.63;10.27;;;1.50;99.90;;;;;;5005189;28;20423;-74
2022/11/20 00:40:58;;;;;;;14.00;10.23;;;1.60;99.90;;;;;;5016882;28;20457;-74
2022/11/20 00:43:24;;;;;;;15.03;10.47;;;1.60;99.90;;;;;;5009984;28;20426;-76
2022/11/20 00:45:50;;;;;;;13.48;9.75;;;1.60;99.90;;;;;;4997479;28;20415;-73
2022/11/20 00:48:16;;;;;;;13.43;9.90;;;1.60;99.90;;;;;;5016012;28;20513;-74
2022/11/20 00:50:42;;;;;;;13.43;9.80;;;1.60;99.90;;;;;;5011027;28;20419;-74
2022/11/20 00:53:07;;;;;;;13.95;9.65;;;1.60;99.90;;;;;;5015405;28;20415;-74
2022/11/20 00:55:33;;;;;;;14.90;9.93;;;1.60;99.90;;;;;;5027711;28;20485;-74
2022/11/20 00:57:59;;;;;;;13.77;10.23;;;1.60;99.90;;;;;;5019548;28;20435;-74
2022/11/20 01:00:24;;;;;;;14.13;10.27;;;1.60;99.90;;;;;;5004641;28;20445;-74
2022/11/20 01:02:50;;;;;;;14.38;9.93;;;1.60;99.90;;;;;;5020815;28;20407;-74
2022/11/20 01:05:16;;;;;;;15.03;10.33;;;1.50;99.90;;;;;;4993200;28;20428;-74
2022/11/20 01:07:41;;;;;;;12.15;9.35;;;1.50;99.90;;;;;;5009534;28;20501;-74
2022/11/20 01:10:07;;;;;;;14.57;10.37;;;1.50;99.90;;;;;;5024133;28;20878;-73
2022/11/20 01:12:33;;;;;;;12.25;9.05;;;1.50;99.90;;;;;;5042107;28;20405;-74
2022/11/20 01:14:58;;;;;;;12.67;9.03;;;1.50;99.90;;;;;;5046846;28;20433;-74
2022/11/20 01:17:24;;;;;;;12.20;9.20;;;1.50;99.90;;;;;;5048816;28;20469;-74
2022/11/20 01:19:50;;;;;;;12.33;8.87;;;1.50;99.90;;;;;;5026505;28;20828;-73
2022/11/20 01:22:16;;;;;;;12.57;9.15;;;1.50;99.90;;;;;;5029134;28;20466;-73
2022/11/20 01:24:41;;;;;;;13.80;9.33;;;1.50;99.90;;;;;;5028992;28;20450;-74
2022/11/20 01:27:07;;;;;;;13.52;9.38;;;1.50;99.90;;;;;;4995166;28;20592;-74
2022/11/20 01:29:32;;;;;;;12.93;9.87;;;1.50;99.90;;;;;;5034226;28;20409;-73
2022/11/20 01:31:58;;;;;;;13.57;9.52;;;1.50;99.90;;;;;;5033207;28;21158;-73
2022/11/20 01:34:24;;;;;;;12.50;9.43;;;1.50;99.90;;;;;;5013233;28;20423;-74
2022/11/20 01:36:51;;;;;;;12.70;9.35;;;1.50;99.90;;;;;;5041308;28;20751;-72
2022/11/20 01:39:20;;;;;;;14.50;9.50;;;1.50;99.90;;;;;;5029676;28;20434;-73
2022/11/20 01:44:51;;;;;;;12.85;9.10;;;1.50;99.90;;;;;;5039130;28;20476;-72
2022/11/20 01:47:39;;;;;;;12.95;9.40;;;1.50;99.90;;;;;;5023517;28;20449;-75
2022/11/20 01:50:21;;;;;;;13.35;9.25;;;1.50;99.90;;;;;;5024031;28;20982;-75
2022/11/20 01:52:59;;;;;;;15.00;9.10;;;1.50;99.90;;;;;;5033797;28;20444;-74
2022/11/20 01:55:30;;;;;;;12.90;9.18;;;1.50;99.90;;;;;;5016911;28;20424;-74
2022/11/20 01:57:57;;;;;;;15.10;10.02;;;1.60;99.90;;;;;;5034799;28;20925;-75
2022/11/20 02:00:23;;;;;;;14.70;9.70;;;1.60;99.90;;;;;;5029415;28;20403;-75
2022/11/20 02:02:53;;;;;;;15.10;9.90;;;1.50;99.90;;;;;;5047246;28;20420;-75
2022/11/20 02:05:28;;;;;;;14.50;10.00;;;1.60;99.90;;;;;;5027363;28;20470;-75
2022/11/20 02:07:57;;;;;;;12.75;9.35;;;1.60;99.90;;;;;;5042387;28;20976;-75
2022/11/20 02:10:23;;;;;;;13.45;9.23;;;1.60;99.90;;;;;;5014815;28;20421;-75
2022/11/20 02:15:33;;;;;;;13.50;9.48;;;1.60;99.90;;;;;;5042966;28;20498;-74
2022/11/20 02:17:59;;;;;;;14.07;9.13;;;1.60;99.90;;;;;;5015487;28;20525;-73
2022/11/20 02:20:25;;;;;;;12.82;9.27;;;1.60;99.90;;;;;;5027986;28;20403;-73
2022/11/20 02:22:56;;;;;;;12.40;9.10;;;1.60;99.90;;;;;;5015089;28;20395;-73
2022/11/20 02:25:24;;;;;;;13.15;9.40;;;1.60;99.90;;;;;;5015409;28;20421;-73
2022/11/20 02:27:50;;;;;;;13.05;9.32;;;1.50;99.90;;;;;;5026440;28;20434;-73
2022/11/20 02:30:16;;;;;;;13.25;9.30;;;1.50;99.90;;;;;;5014133;28;20413;-73
2022/11/20 02:32:42;;;;;;;13.57;9.02;;;1.50;99.90;;;;;;5009825;28;20483;-73
2022/11/20 02:35:20;;;;;;;13.18;9.38;;;1.50;99.90;;;;;;5009324;28;20421;-73
2022/11/20 02:37:52;;;;;;;13.47;9.27;;;1.60;99.90;;;;;;5024523;28;20421;-74
2022/11/20 02:40:17;;;;;;;12.50;8.98;;;1.50;99.90;;;;;;5022580;28;20762;-75
2022/11/20 02:42:43;;;;;;;15.02;9.35;;;1.50;99.90;;;;;;5012846;28;20423;-74
2022/11/20 02:45:09;;;;;;;13.23;9.20;;;1.50;99.90;;;;;;5008964;28;20818;-74
2022/11/20 02:47:34;;;;;;;12.45;9.13;;;1.50;99.90;;;;;;5015660;28;20801;-74
2022/11/20 02:50:00;;;;;;;12.30;9.25;;;1.50;99.90;;;;;;5027202;28;20399;-74
2022/11/20 02:52:26;;;;;;;13.00;8.87;;;1.50;99.90;;;;;;5021050;28;20409;-74
2022/11/20 02:54:52;;;;;;;12.52;8.95;;;1.50;99.90;;;;;;5013284;28;20704;-74
2022/11/20 02:57:17;;;;;;;12.07;9.07;;;1.60;99.90;;;;;;5019141;28;20419;-74
2022/11/20 02:59:43;;;;;;;13.13;9.23;;;1.60;99.90;;;;;;5021701;28;20901;-74
2022/11/20 03:02:08;;;;;;;13.13;9.40;;;1.50;99.90;;;;;;5027550;28;20409;-74
2022/11/20 03:04:34;;;;;;;12.03;8.83;;;1.50;99.90;;;;;;5013808;28;20836;-74
2022/11/20 03:07:00;;;;;;;12.98;9.30;;;1.50;99.90;;;;;;5021774;28;20534;-73
2022/11/20 03:09:25;;;;;;;12.53;8.77;;;1.60;99.90;;;;;;5029427;28;20476;-74
2022/11/20 03:11:51;;;;;;;11.50;8.63;;;1.60;99.90;;;;;;5037000;28;20828;-74
2022/11/20 03:14:16;;;;;;;13.37;8.73;;;1.60;99.90;;;;;;5044613;28;20405;-74
2022/11/20 03:16:42;;;;;;;11.07;8.10;;;1.60;99.90;;;;;;5048680;28;20815;-74
2022/11/20 03:19:08;;;;;;;12.80;8.55;;;1.60;99.90;;;;;;5031297;28;20399;-73
2022/11/20 03:21:34;;;;;;;12.43;8.80;;;1.60;99.90;;;;;;5033658;28;20419;-74
2022/11/20 03:24:00;;;;;;;12.38;8.63;;;1.60;99.90;;;;;;5042676;28;20411;-73
2022/11/20 03:26:27;;;;;;;11.00;7.97;;;1.60;99.90;;;;;;5043313;28;20401;-74
2022/11/20 03:28:57;;;;;;;11.63;8.10;;;1.60;99.90;;;;;;5015112;28;20435;-74
2022/11/20 03:31:25;;;;;;;11.98;7.47;;;1.60;99.90;;;;;;5031414;28;20897;-74
2022/11/20 03:33:51;;;;;;;11.05;7.60;;;1.70;99.90;;;;;;5032419;28;20425;-74
2022/11/20 03:36:18;;;;;;;11.00;7.18;;;1.60;99.90;;;;;;5050213;28;20783;-74
2022/11/20 03:38:44;;;;;;;11.70;7.93;;;1.70;99.90;;;;;;5014706;28;20415;-74
2022/11/20 03:41:12;;;;;;;10.93;7.25;;;1.70;99.90;;;;;;5029608;28;20475;-74
2022/11/20 03:43:39;;;;;;;11.15;7.35;;;1.70;99.90;;;;;;5030306;28;20406;-74
2022/11/20 03:46:05;;;;;;;10.68;7.65;;;1.70;99.90;;;;;;5032832;28;20423;-74
2022/11/20 03:48:31;;;;;;;10.63;7.73;;;1.70;99.90;;;;;;5018987;28;20565;-74
2022/11/20 03:51:11;;;;;;;10.37;7.10;;;1.70;99.90;;;;;;5026608;28;20860;-74
2022/11/20 03:53:37;;;;;;;10.13;7.47;;;1.70;99.90;;;;;;5027230;28;20469;-74
2022/11/20 03:56:03;;;;;;;11.10;7.28;;;1.70;99.90;;;;;;5038223;28;20419;-74
2022/11/20 03:58:29;;;;;;;9.07;6.72;;;1.70;99.90;;;;;;5044256;28;20756;-74
2022/11/20 04:00:54;;;;;;;9.40;7.07;;;1.70;99.90;;;;;;5021591;28;20409;-74
2022/11/20 04:03:20;;;;;;;9.47;7.07;;;1.70;99.90;;;;;;5028433;28;20407;-75
2022/11/20 04:05:45;;;;;;;9.93;7.30;;;1.80;99.90;;;;;;5038586;28;20401;-74
2022/11/20 04:08:11;;;;;;;14.90;8.17;;;1.70;99.90;;;;;;5033776;28;20526;-74
2022/11/20 04:10:37;;;;;;;10.73;7.10;;;1.80;99.90;;;;;;5039084;28;20493;-74
2022/11/20 04:13:03;;;;;;;10.43;7.35;;;1.80;99.90;;;;;;5030889;28;20414;-74
2022/11/20 04:15:28;;;;;;;11.83;8.17;;;1.70;99.90;;;;;;5039358;28;20408;-74
2022/11/20 04:17:54;;;;;;;10.55;7.75;;;1.70;99.90;;;;;;5042183;28;20393;-73
2022/11/20 04:20:20;;;;;;;11.23;8.10;;;1.70;99.90;;;;;;5037571;28;20394;-73
2022/11/20 04:22:46;;;;;;;11.80;8.48;;;1.70;99.90;;;;;;5045020;28;20788;-74
2022/11/20 04:25:11;;;;;;;12.17;7.80;;;1.70;99.90;;;;;;5027941;28;20441;-74
2022/11/20 04:27:37;;;;;;;9.95;7.45;;;1.70;99.90;;;;;;5028998;28;20437;-74
2022/11/20 04:30:03;;;;;;;11.20;8.30;;;1.70;99.90;;;;;;5042908;28;20415;-74
2022/11/20 04:32:28;;;;;;;11.82;7.85;;;1.70;99.90;;;;;;5043025;28;20405;-74
2022/11/20 04:34:54;;;;;;;10.63;7.10;;;1.70;99.90;;;;;;5044519;28;20814;-74
2022/11/20 04:37:19;;;;;;;9.13;6.20;;;1.70;99.90;;;;;;5035445;28;20399;-74
2022/11/20 04:39:45;;;;;;;8.70;6.30;;;1.70;99.90;;;;;;5048807;28;20420;-74
2022/11/20 04:42:29;;;;;;;8.37;6.33;;;1.70;99.90;;;;;;5029697;28;20447;-74
2022/11/20 04:44:55;;;;;;;10.13;7.18;;;1.70;99.90;;;;;;5018057;28;20403;-74
2022/11/20 04:47:21;;;;;;;8.20;6.22;;;1.70;99.90;;;;;;5035699;28;20582;-74
2022/11/20 04:49:47;;;;;;;9.55;6.65;;;1.70;99.90;;;;;;5048194;28;20982;-74
2022/11/20 04:52:13;;;;;;;8.67;6.27;;;1.70;99.90;;;;;;5025587;28;20403;-73
2022/11/20 04:54:38;;;;;;;9.05;6.10;;;1.70;99.90;;;;;;5029093;28;20473;-73
2022/11/20 04:57:04;;;;;;;9.27;6.53;;;1.70;99.90;;;;;;5045490;28;20409;-74
2022/11/20 04:59:29;;;;;;;10.03;7.40;;;1.70;99.90;;;;;;5035613;28;20395;-75
2022/11/20 05:01:55;;;;;;;10.35;7.20;;;1.80;99.90;;;;;;5026193;28;20401;-75
2022/11/20 05:04:20;;;;;;;10.40;7.00;;;1.80;99.90;;;;;;5021866;28;20403;-74
2022/11/20 05:06:46;;;;;;;10.43;7.70;;;1.80;99.90;;;;;;5024700;28;20506;-74
2022/11/20 05:09:12;;;;;;;10.40;7.87;;;1.80;99.90;;;;;;5049456;28;20416;-73
2022/11/20 05:11:38;;;;;;;12.07;8.35;;;1.80;99.90;;;;;;5046191;28;20393;-74
2022/11/20 05:14:03;;;;;;;11.83;8.87;;;1.80;99.90;;;;;;5044149;28;20405;-74
2022/11/20 05:16:29;;;;;;;12.57;8.73;;;1.80;99.90;;;;;;5030302;28;20408;-74
2022/11/20 05:18:55;;;;;;;12.93;9.27;;;1.70;99.90;;;;;;5047630;28;20480;-74
2022/11/20 05:21:21;;;;;;;13.30;9.15;;;1.70;99.90;;;;;;5028404;28;20412;-74
2022/11/20 05:23:47;;;;;;;14.35;9.82;;;1.70;99.90;;;;;;5022353;28;20412;-74
2022/11/20 05:26:19;;;;;;;14.32;9.57;;;1.70;99.90;;;;;;5039839;28;20475;-74
2022/11/20 05:28:45;;;;;;;13.43;9.77;;;1.70;99.90;;;;;;5025490;28;20476;-74
2022/11/20 05:31:15;;;;;;;11.77;8.93;;;1.70;99.90;;;;;;5043903;28;20911;-73
2022/11/20 05:33:42;;;;;;;13.00;9.35;;;1.70;99.90;;;;;;5031107;28;20733;-74
2022/11/20 05:36:09;;;;;;;11.98;9.10;;;1.70;99.90;;;;;;5014859;28;20415;-74
2022/11/20 05:38:34;;;;;;;13.60;9.20;;;1.70;99.90;;;;;;5041712;28;20550;-74
2022/11/20 05:41:18;;;;;;;11.82;9.20;;;1.70;99.90;;;;;;5030705;28;20475;-74
2022/11/20 05:43:45;;;;;;;13.13;9.45;;;1.80;99.90;;;;;;5031771;28;20425;-74
2022/11/20 05:46:13;;;;;;;13.40;9.70;;;1.70;99.90;;;;;;5027740;28;20477;-73
2022/11/20 05:48:40;;;;;;;14.13;9.77;;;1.70;99.90;;;;;;5028982;28;20438;-74
2022/11/20 05:51:08;;;;;;;15.63;10.35;;;1.70;99.90;;;;;;5035063;28;20506;-74
2022/11/20 05:53:35;;;;;;;13.90;9.45;;;1.70;99.90;;;;;;5045717;28;20441;-74
2022/11/20 05:56:15;;;;;;;13.80;10.02;;;1.70;99.90;;;;;;5035296;28;20446;-74
2022/11/20 05:58:41;;;;;;;12.73;9.32;;;1.70;99.90;;;;;;5034011;28;20419;-74
2022/11/20 06:01:14;;;;;;;13.37;9.57;;;1.70;99.90;;;;;;5019563;28;20409;-74
2022/11/20 06:03:42;;;;;;;14.02;10.02;;;1.70;99.90;;;;;;5034994;28;20812;-74
2022/11/20 06:06:08;;;;;;;13.40;9.32;;;1.70;99.90;;;;;;5027546;28;20405;-73
2022/11/20 06:08:34;;;;;;;14.23;10.05;;;1.70;99.90;;;;;;5037956;28;20442;-74
2022/11/20 06:11:08;;;;;;;13.10;9.88;;;1.70;99.90;;;;;;5044824;28;20783;-73
2022/11/20 06:13:34;;;;;;;14.77;10.32;;;1.70;99.90;;;;;;5026489;28;20430;-74
2022/11/20 06:15:59;;;;;;;13.67;9.50;;;1.70;99.90;;;;;;5046527;28;20401;-74
2022/11/20 06:18:28;;;;;;;14.70;9.83;;;1.60;99.90;;;;;;5001642;28;20410;-74
2022/11/20 06:21:01;;;;;;;14.85;10.05;;;1.60;99.90;;;;;;5025794;28;20916;-74
2022/11/20 06:23:31;;;;;;;13.43;9.95;;;1.60;99.90;;;;;;5034614;28;20438;-74
2022/11/20 06:25:58;;;;;;;14.37;10.20;;;1.60;99.90;;;;;;5035405;28;20410;-74
2022/11/20 06:28:23;;;;;;;12.80;9.55;;;1.60;99.90;;;;;;5015898;28;20518;-74
2022/11/20 06:30:49;;;;;;;13.97;9.77;;;1.70;99.90;;;;;;5034215;28;20494;-75
2022/11/20 06:33:14;;;;;;;13.93;9.90;;;1.60;99.90;;;;;;5010181;28;20438;-73
2022/11/20 06:35:40;;;;;;;14.13;10.13;;;1.70;99.90;;;;;;5011562;28;20909;-74
2022/11/20 06:38:06;;;;;;;13.77;9.55;;;1.60;99.90;;;;;;5006264;28;20413;-74
2022/11/20 06:40:31;;;;;;;11.83;9.23;;;1.70;99.90;;;;;;5028414;28;20820;-73
2022/11/20 06:42:57;;;;;;;13.95;9.50;;;1.70;99.90;;;;;;5000728;28;20414;-73
2022/11/20 06:45:22;;;;;;;12.77;9.83;;;1.70;99.90;;;;;;5028468;28;20426;-73
2022/11/20 06:47:48;;;;;;;12.75;9.10;;;1.70;99.90;;;;;;4994163;28;20443;-73
2022/11/20 06:50:14;;;;;;;13.53;9.40;;;1.70;99.90;;;;;;5042810;28;20782;-74
2022/11/20 06:52:39;;;;;;;12.35;9.57;;;1.70;99.90;;;;;;5013706;28;20415;-74
2022/11/20 06:55:05;;;;;;;14.67;9.80;;;1.80;99.90;;;;;;5032078;28;20407;-74
2022/11/20 06:57:31;;;;;;;13.20;9.40;;;1.70;99.90;;;;;;5037234;28;20446;-74
2022/11/20 06:59:56;;;;;;;15.07;10.25;;;1.80;99.90;;;;;;5037989;28;20432;-73
2022/11/20 07:02:22;;;;;;;13.85;9.48;;;1.80;99.90;;;;;;5019101;28;20518;-74
2022/11/20 07:04:48;;;;;;;14.07;9.47;;;1.80;99.90;;;;;;5032415;28;20410;-74
2022/11/20 07:07:13;;;;;;;12.30;9.33;;;1.80;99.90;;;;;;5033204;28;20439;-74
2022/11/20 07:09:39;;;;;;;13.13;9.60;;;1.80;99.90;;;;;;5013697;28;20411;-74
2022/11/20 07:12:05;;;;;;;13.67;9.90;;;1.80;99.90;;;;;;5044241;28;20429;-74
2022/11/20 07:14:30;;;;;;;13.65;10.00;;;1.80;99.90;;;;;;5044062;28;20403;-73
2022/11/20 07:16:56;;;;;;;13.23;9.80;;;1.90;99.90;;;;;;5031692;28;20410;-74
2022/11/20 07:19:21;;;;;;;14.20;10.10;;;1.90;99.90;;;;;;5044982;28;20395;-74
2022/11/20 07:21:47;;;;;;;13.55;10.00;;;1.90;99.90;;;;;;5038162;28;20409;-74
2022/11/20 07:24:13;;;;;;;13.03;9.73;;;1.90;99.90;;;;;;5004001;28;20512;-74
2022/11/20 07:26:38;;;;;;;13.68;10.05;;;1.90;99.90;;;;;;5051050;28;20412;-74
2022/11/20 07:29:04;;;;;;;12.97;9.97;;;1.90;99.90;;;;;;5043879;28;20431;-74
2022/11/20 07:31:29;;;;;;;13.18;9.15;;;1.90;99.90;;;;;;5038242;28;21022;-74
2022/11/20 07:33:55;;;;;;;13.57;10.03;;;1.90;99.90;;;;;;5031192;28;20408;-74
2022/11/20 07:36:20;;;;;;;14.70;10.60;;;1.90;99.90;;;;;;5031338;28;20414;-74
2022/11/20 07:38:46;;;;;;;13.33;9.30;;;1.90;99.90;;;;;;5028617;28;20434;-74
2022/11/20 07:41:12;;;;;;;14.40;9.70;;;1.90;99.90;;;;;;5042907;28;20408;-74
2022/11/20 07:43:37;;;;;;;14.13;10.50;;;1.90;99.90;;;;;;5050794;28;20409;-74
2022/11/20 07:46:03;;;;;;;13.40;9.98;;;1.80;99.90;;;;;;5038949;28;20418;-74
2022/11/20 07:48:29;;;;;;;12.73;9.23;;;1.80;99.90;;;;;;5013020;28;20485;-74
2022/11/20 07:50:58;;;;;;;15.33;10.50;;;1.80;99.90;;;;;;5042640;28;20467;-73
2022/11/20 07:53:24;;;;;;;12.68;9.07;;;1.80;99.90;;;;;;5032663;28;20432;-74
2022/11/20 07:55:52;;;;;;;12.73;9.52;;;1.90;99.90;;;;;;5049310;28;20458;-74
2022/11/20 07:58:19;;;;;;;12.68;9.60;;;1.80;99.90;;;;;;5041160;28;20409;-74
2022/11/20 08:00:45;;;;;;;14.68;10.07;;;1.80;99.90;;;;;;5037861;28;20406;-74
2022/11/20 08:03:10;;;;;;;13.60;10.00;;;1.80;99.90;;;;;;5049639;28;20398;-74
2022/11/20 08:05:37;;;;;;;15.07;9.50;;;1.80;99.90;;;;;;5036618;28;20407;-74
2022/11/20 08:08:03;;;;;;;14.45;10.23;;;1.90;99.90;;;;;;5030165;28;20431;-74
2022/11/20 08:10:28;;;;;;;13.73;9.97;;;1.90;99.90;;;;;;5026707;28;20406;-74
2022/11/20 08:15:40;;;;;;;13.48;9.45;;;1.90;99.90;;;;;;5034737;28;20461;-73
2022/11/20 08:18:13;;;;;;;13.60;10.38;;;1.90;99.90;;;;;;5041911;28;20922;-73
2022/11/20 08:20:39;;;;;;;12.80;10.00;;;1.90;99.90;;;;;;4990489;28;21056;-74
2022/11/20 08:23:07;;;;;;;15.97;10.43;;;2.00;99.90;;;;;;5029412;28;20490;-73
2022/11/20 08:25:34;;;;;;;15.45;9.75;;;2.00;99.90;;;;;;4998362;28;20423;-73
2022/11/20 08:28:02;;;;;;;14.85;10.35;;;2.00;99.90;;;;;;5022880;28;20482;-74
2022/11/20 08:30:29;;;;;;;14.15;9.73;;;2.00;99.90;;;;;;5015443;28;20425;-74
2022/11/20 08:33:00;;;;;;;14.00;9.50;;;2.00;99.90;;;;;;5023923;28;20932;-73
2022/11/20 08:35:26;;;;;;;12.93;9.48;;;2.10;99.90;;;;;;5028342;28;20500;-74
2022/11/20 08:37:52;;;;;;;14.82;9.45;;;2.10;99.90;;;;;;5028328;28;20486;-75
2022/11/20 08:40:17;;;;;;;14.27;10.07;;;2.10;99.90;;;;;;5029443;28;20411;-75
2022/11/20 08:42:50;;;;;;;13.88;10.35;;;2.10;99.90;;;;;;5013153;28;20429;-74
2022/11/20 08:45:17;;;;;;;14.80;10.27;;;2.20;99.90;;;;;;5028338;28;20423;-74
2022/11/20 08:47:43;;;;;;;15.05;10.18;;;2.20;99.90;;;;;;5007801;28;20423;-74
2022/11/20 08:50:11;;;;;;;15.63;10.38;;;2.20;99.90;;;;;;5011687;28;20419;-74
2022/11/20 08:52:37;;;;;;;14.75;10.27;;;2.20;99.90;;;;;;5011528;28;20821;-74
2022/11/20 08:55:04;;;;;;;13.88;10.10;;;2.20;99.90;;;;;;5029197;28;20529;-74
2022/11/20 08:57:32;;;;;;;14.90;9.73;;;2.20;99.90;;;;;;5032334;28;20403;-74
2022/11/20 08:59:58;;;;;;;12.85;9.77;;;2.20;99.90;;;;;;5031141;28;20439;-74
2022/11/20 09:02:24;;;;;;;12.82;9.95;;;2.30;99.90;;;;;;5012010;28;20415;-75
2022/11/20 09:04:49;;;;;;;13.35;10.05;;;2.30;99.90;;;;;;5032496;28;20408;-74
2022/11/20 09:07:15;;;;;;;14.17;10.27;;;2.30;99.90;;;;;;5010399;28;20768;-75
2022/11/20 09:09:41;;;;;;;13.45;9.52;;;2.40;99.90;;;;;;5011939;28;20413;-74
2022/11/20 09:12:06;;;;;;;14.40;9.70;;;2.40;99.90;;;;;;5009182;28;20449;-74
2022/11/20 09:14:33;;;;;;;12.60;9.32;;;2.40;99.90;;;;;;5013983;28;20405;-74
2022/11/20 09:16:59;;;;;;;12.35;9.60;;;2.40;99.90;;;;;;5008820;28;21266;-74
2022/11/20 09:19:24;;;;;;;12.98;9.45;;;2.50;99.90;;;;;;5009773;28;20459;-75
2022/11/20 09:21:50;;;;;;;12.18;9.07;;;2.50;99.90;;;;;;5006934;28;20459;-74
2022/11/20 09:24:16;;;;;;;12.85;9.20;;;2.50;99.90;;;;;;5006941;28;20421;-74
2022/11/20 09:26:42;;;;;;;12.82;9.15;;;2.60;99.90;;;;;;5011114;28;20420;-75
2022/11/20 09:29:08;;;;;;;12.80;8.87;;;2.60;99.90;;;;;;5019870;28;20444;-76
2022/11/20 09:31:34;;;;;;;13.65;8.98;;;2.60;99.90;;;;;;5020208;28;20395;-75
2022/11/20 09:33:59;;;;;;;12.83;8.90;;;2.60;99.90;;;;;;5014222;28;20405;-76
2022/11/20 09:36:25;;;;;;;11.40;8.48;;;2.70;99.90;;;;;;5011498;28;20415;-76
2022/11/20 09:38:50;;;;;;;11.30;8.47;;;2.70;99.90;;;;;;5022777;28;20421;-76
2022/11/20 09:41:23;;;;;;;12.13;8.60;;;2.80;99.90;;;;;;5016295;28;20786;-76
2022/11/20 09:44:04;;;;;;;11.52;8.25;;;2.80;99.90;;;;;;5039429;28;20751;-73
2022/11/20 09:46:37;;;;;;;10.85;7.97;;;2.90;99.90;;;;;;5026278;28;20905;-73
2022/11/20 09:49:19;;;;;;;10.93;8.05;;;2.90;99.90;;;;;;5022204;28;20820;-73
2022/11/20 09:52:40;;;;;;;11.55;8.30;;;3.00;99.90;;;;;;5022509;28;20902;-73
2022/11/20 09:55:11;;;;;;;10.85;8.27;;;3.00;99.90;;;;;;4978417;28;20415;-73
2022/11/20 09:57:40;;;;;;;11.15;8.30;;;3.00;99.90;;;;;;4984379;28;20840;-73
2022/11/20 10:00:11;;;;;;;12.73;9.57;;;3.00;99.90;;;;;;5001195;28;20498;-73
2022/11/20 10:03:01;;;;;;;12.45;9.18;;;3.10;99.90;;;;;;5005475;28;20909;-73
2022/11/20 10:05:33;;;;;;;12.55;9.40;;;3.10;99.90;;;;;;5017649;28;20423;-73
2022/11/20 10:08:17;;;;;;;12.00;9.17;;;3.10;99.90;;;;;;5029744;28;20453;-73
2022/11/20 10:10:51;;;;;;;11.40;8.70;;;3.10;99.90;;;;;;5038192;28;20414;-73
2022/11/20 10:13:33;;;;;;;13.52;8.93;;;3.20;99.90;;;;;;5040829;28;20422;-73
2022/11/20 10:16:17;;;;;;;12.52;9.10;;;3.20;99.90;;;;;;5046058;28;20433;-73
2022/11/20 10:19:04;;;;;;;12.75;9.02;;;3.30;99.90;;;;;;5005463;28;20466;-73
2022/11/20 10:21:38;;;;;;;12.77;9.23;;;3.30;99.90;;;;;;5041210;28;20461;-73
2022/11/20 10:24:15;;;;;;;13.30;9.68;;;3.30;99.90;;;;;;5019103;28;20421;-73
2022/11/20 10:27:04;;;;;;;11.98;8.52;;;3.30;99.90;;;;;;5008745;28;20934;-73
2022/11/20 10:29:34;;;;;;;12.50;9.25;;;3.30;99.90;;;;;;5026471;28;20496;-73
2022/11/20 10:32:16;;;;;;;11.00;8.65;;;3.30;99.90;;;;;;5016387;28;20987;-73
2022/11/20 10:34:54;;;;;;;11.13;8.23;;;3.30;99.90;;;;;;5031268;28;20417;-73
2022/11/20 10:37:24;;;;;;;11.23;8.27;;;3.40;99.90;;;;;;5028326;28;20485;-73
2022/11/20 10:40:14;;;;;;;11.45;8.52;;;3.40;99.90;;;;;;5009873;28;20430;-75
2022/11/20 10:42:50;;;;;;;12.18;8.52;;;3.50;99.90;;;;;;5022567;28;20520;-73
2022/11/20 10:45:25;;;;;;;10.85;8.48;;;3.50;99.90;;;;;;5047269;28;20828;-73
2022/11/20 10:48:16;;;;;;;10.98;8.10;;;3.60;99.90;;;;;;5012072;28;20435;-73
2022/11/20 10:50:55;;;;;;;12.10;8.65;;;3.70;99.90;;;;;;5029505;28;20584;-74
2022/11/20 10:54:02;;;;;;;11.90;8.50;;;3.80;99.90;;;;;;5013948;28;20425;-75
2022/11/20 10:56:41;;;;;;;11.02;8.52;;;3.90;99.90;;;;;;5014012;28;20785;-74
2022/11/20 10:59:44;;;;;;;11.37;7.80;;;3.90;99.90;;;;;;5031122;28;20913;-73
2022/11/20 11:02:21;;;;;;;10.50;8.15;;;4.00;99.90;;;;;;5042407;28;20413;-73
2022/11/20 11:04:50;;;;;;;10.50;7.78;;;4.10;99.90;;;;;;5049956;28;20482;-74
2022/11/20 11:07:35;;;;;;;10.45;7.55;;;4.20;99.90;;;;;;5026321;28;20929;-74
2022/11/20 11:10:00;;;;;;;10.55;7.72;;;4.20;99.90;;;;;;5024001;28;20453;-75
2022/11/20 11:12:28;;;;;;;10.18;7.90;;;4.30;99.90;;;;;;5020907;28;20427;-72
2022/11/20 11:14:57;;;;;;;10.57;7.70;;;4.40;99.90;;;;;;5050659;28;20771;-73
2022/11/20 11:17:32;;;;;;;11.07;8.27;;;4.40;99.90;;;;;;5050284;28;20455;-73
2022/11/20 11:20:15;;;;;;;10.50;8.18;;;4.60;99.90;;;;;;5040526;28;20407;-72
2022/11/20 11:22:48;;;;;;;11.93;8.13;;;4.80;99.90;;;;;;5016367;28;20503;-72
2022/11/20 11:25:27;;;;;;;11.25;8.00;;;4.80;99.90;;;;;;5021108;28;20428;-72
2022/11/20 11:27:56;;;;;;;11.18;8.07;;;4.80;99.90;;;;;;5040769;28;20957;-72
2022/11/20 11:30:23;;;;;;;9.88;7.28;;;4.80;99.90;;;;;;5038250;28;20484;-72
2022/11/20 11:32:49;;;;;;;9.77;7.57;;;4.70;99.90;;;;;;5049535;28;20416;-74
2022/11/20 11:35:24;;;;;;;10.82;7.30;;;4.80;99.90;;;;;;5033021;28;20403;-73
2022/11/20 11:37:51;;;;;;;9.82;7.55;;;4.80;99.90;;;;;;5023926;28;20413;-73
2022/11/20 11:40:18;;;;;;;9.55;7.15;;;4.80;99.90;;;;;;5015300;28;20414;-73
2022/11/20 11:42:51;;;;;;;8.95;6.63;;;4.80;99.90;;;;;;5042164;28;20413;-73
2022/11/20 11:45:17;;;;;;;9.20;6.83;;;4.90;99.90;;;;;;5045159;28;20415;-73
2022/11/20 11:47:48;;;;;;;9.63;6.87;;;4.80;99.90;;;;;;5042993;28;20409;-73
2022/11/20 11:50:21;;;;;;;10.00;7.75;;;4.80;99.90;;;;;;5031630;28;20415;-73
2022/11/20 11:53:13;;;;;;;11.17;8.47;;;4.70;99.90;;;;;;5030249;28;20411;-73
2022/11/20 11:55:53;;;;;;;10.68;7.90;;;4.70;99.90;;;;;;5030855;28;20498;-73
2022/11/20 11:58:38;;;;;;;11.95;8.07;;;4.80;99.90;;;;;;5049404;28;20467;-72
2022/11/20 12:01:25;;;;;;;10.50;8.03;;;4.80;99.90;;;;;;5031861;28;20433;-75
2022/11/20 12:04:02;;;;;;;10.90;7.90;;;4.80;99.90;;;;;;5033064;28;20493;-73
2022/11/20 12:06:31;;;;;;;11.65;7.85;;;4.80;99.90;;;;;;5017918;28;20420;-73
2022/11/20 12:09:02;;;;;;;10.45;7.63;;;4.70;99.90;;;;;;5036222;28;20427;-73
2022/11/20 12:11:53;;;;;;;10.48;7.97;;;4.70;99.90;;;;;;5027933;28;20411;-73
2022/11/20 12:14:19;;;;;;;10.57;7.60;;;4.70;99.90;;;;;;5034391;28;20445;-73
2022/11/20 12:16:46;;;;;;;10.45;7.28;;;4.70;99.90;;;;;;5038250;28;20414;-73
2022/11/20 12:19:13;;;;;;;10.50;7.63;;;4.80;99.90;;;;;;5034425;28;20405;-73
2022/11/20 12:21:46;;;;;;;10.40;7.72;;;4.90;99.90;;;;;;5039290;28;20443;-73
2022/11/20 12:24:47;;;;;;;10.35;8.10;;;4.90;99.90;;;;;;5049180;28;20946;-73
2022/11/20 12:27:27;;;;;;;10.17;7.20;;;4.80;99.90;;;;;;5042751;28;20484;-73
2022/11/20 12:30:13;;;;;;;9.88;7.20;;;4.80;99.90;;;;;;5015009;28;20440;-73
2022/11/20 12:33:03;;;;;;;9.05;7.28;;;4.70;99.90;;;;;;5026318;28;20414;-73
2022/11/20 12:35:38;;;;;;;11.40;7.60;;;4.60;99.90;;;;;;5028501;28;20423;-73
2022/11/20 12:38:35;;;;;;;10.25;7.43;;;4.50;99.90;;;;;;5031215;28;20913;-73
2022/11/20 12:47:50;;;;;;;10.93;7.65;;;4.50;99.90;;;;;;5048575;28;20768;-73
2022/11/20 12:50:22;;;;;;;9.90;7.70;;;4.60;99.90;;;;;;5048656;28;20459;-73
2022/11/20 12:52:56;;;;;;;9.37;6.83;;;4.60;99.90;;;;;;5048175;28;20412;-73
2022/11/20 12:55:54;;;;;;;9.30;6.85;;;4.60;99.90;;;;;;5041329;28;20473;-74
2022/11/20 12:59:20;;;;;;;9.40;6.82;;;4.60;99.90;;;;;;5009876;28;20420;-73
2022/11/20 13:02:19;;;;;;;9.33;6.60;;;4.50;99.90;;;;;;5001075;28;20504;-73
2022/11/20 13:05:00;;;;;;;8.27;6.57;;;4.50;99.90;;;;;;5034931;28;20405;-73
2022/11/20 13:07:27;;;;;;;8.38;6.13;;;4.50;99.90;;;;;;5008176;28;20430;-73
2022/11/20 13:09:54;;;;;;;10.27;7.50;;;4.40;99.90;;;;;;5011306;28;20406;-73
2022/11/20 13:12:39;;;;;;;9.60;7.60;;;4.30;99.90;;;;;;5029132;28;20992;-73
2022/11/20 13:15:45;;;;;;;10.32;7.63;;;4.30;99.90;;;;;;5048290;28;20504;-73